Time;durP1;ratioP1;P1;durP2;ratioP2;P2;SDS_P1;SDS_P2;PMS_P1;PMS_P2;Temp;Humidity;BMP_temperature;BMP_pressure;BME280_temperature;BME280_humidity;BME280_pressure;Samples;Min_cycle;Max_cycle;Signal;HPM_P1;HPM_P2
2022/09/23 00:01:01;;;;;;;6.96;6.15;;;;;;;14.03;64.59;100370.41;463006;114;922617;-77
2022/09/23 00:02:05;;;;;;;7.02;6.16;;;;;;;14.03;64.62;100375.05;462834;114;923017;-78
2022/09/23 00:03:09;;;;;;;5.58;4.69;;;;;;;14.04;64.78;100365.77;462876;114;923019;-77
2022/09/23 00:04:13;;;;;;;4.42;3.99;;;;;;;14.04;64.77;100365.77;462993;114;922518;-77
2022/09/23 00:05:16;;;;;;;5.25;4.80;;;;;;;14.03;64.51;100362.19;463039;114;922937;-78
2022/09/23 00:06:22;;;;;;;4.04;3.67;;;;;;;14.02;64.47;100359.67;462880;114;922450;-77
2022/09/23 00:07:25;;;;;;;3.98;3.68;;;;;;;14.02;64.18;100351.45;462803;114;930748;-77
2022/09/23 00:08:29;;;;;;;3.92;3.62;;;;;;;14.01;64.07;100356.09;463100;114;922609;-77
2022/09/23 00:09:32;;;;;;;3.79;3.48;;;;;;;14.01;63.88;100353.36;463027;114;922515;-77
2022/09/23 00:10:37;;;;;;;4.81;4.03;;;;;;;14.00;63.75;100354.43;463053;114;923037;-77
2022/09/23 00:11:40;;;;;;;3.65;3.19;;;;;;;13.99;63.62;100354.70;462882;114;923058;-77
2022/09/23 00:12:43;;;;;;;3.32;2.98;;;;;;;13.99;63.53;100350.05;463081;114;922514;-77
2022/09/23 00:13:48;;;;;;;3.98;3.58;;;;;;;13.99;63.44;100351.95;463086;114;922643;-77
2022/09/23 00:14:51;;;;;;;3.44;2.90;;;;;;;13.98;63.40;100356.59;462907;114;922501;-77
2022/09/23 00:15:54;;;;;;;2.85;2.52;;;;;;;13.98;63.30;100353.86;463082;114;922555;-77
2022/09/23 00:16:57;;;;;;;3.43;3.06;;;;;;;13.98;63.01;100361.25;463109;114;922972;-76
2022/09/23 00:18:00;;;;;;;2.79;2.59;;;;;;;13.96;62.85;100358.73;463125;114;922489;-77
2022/09/23 00:19:04;;;;;;;2.52;2.27;;;;;;;13.96;62.76;100358.73;463087;114;922533;-76
2022/09/23 00:20:08;;;;;;;4.28;2.51;;;;;;;13.95;62.58;100351.58;463016;114;922935;-77
2022/09/23 00:21:13;;;;;;;3.09;2.77;;;;;;;13.94;62.47;100355.42;462914;114;930459;-78
2022/09/23 00:22:16;;;;;;;2.71;2.51;;;;;;;13.94;62.31;100354.59;462952;114;922672;-77
2022/09/23 00:23:19;;;;;;;2.75;2.45;;;;;;;13.93;62.16;100350.18;463111;114;922587;-77
2022/09/23 00:24:23;;;;;;;2.81;2.29;;;;;;;13.91;62.11;100353.16;463142;114;922462;-78
2022/09/23 00:25:28;;;;;;;3.44;2.16;;;;;;;13.92;62.07;100353.98;463007;114;922898;-76
2022/09/23 00:26:31;;;;;;;2.33;2.14;;;;;;;13.92;61.84;100348.51;462930;114;922913;-76
2022/09/23 00:27:35;;;;;;;2.11;1.92;;;;;;;13.91;61.86;100344.09;463142;114;922531;-77
2022/09/23 00:28:38;;;;;;;2.41;2.19;;;;;;;13.91;61.84;100353.16;463068;114;922500;-76
2022/09/23 00:29:41;;;;;;;2.34;2.13;;;;;;;13.92;61.74;100351.25;463110;114;922473;-77
2022/09/23 00:30:44;;;;;;;2.37;2.11;;;;;;;13.93;61.73;100351.02;463058;114;923157;-78
2022/09/23 00:31:47;;;;;;;2.34;2.18;;;;;;;13.94;61.71;100346.37;463128;114;922477;-77
2022/09/23 00:32:51;;;;;;;2.25;2.06;;;;;;;13.97;61.59;100356.83;463168;114;922583;-76
2022/09/23 00:33:56;;;;;;;2.38;2.19;;;;;;;13.98;61.46;100350.28;463103;114;922672;-77
2022/09/23 00:35:00;;;;;;;2.14;2.02;;;;;;;13.99;61.29;100352.79;462975;114;923212;-77
2022/09/23 00:36:05;;;;;;;2.52;2.27;;;;;;;14.00;61.25;100354.43;463125;114;922396;-77
2022/09/23 00:37:08;;;;;;;3.42;2.01;;;;;;;14.02;61.41;100354.20;462904;114;922560;-77
2022/09/23 00:38:12;;;;;;;2.56;2.17;;;;;;;14.03;61.28;100359.45;463152;114;922823;-77
2022/09/23 00:39:15;;;;;;;2.15;2.02;;;;;;;14.05;61.17;100362.78;462993;114;922540;-78
2022/09/23 00:40:19;;;;;;;1.94;1.80;;;;;;;14.06;61.29;100361.69;463129;114;922622;-78
2022/09/23 00:41:23;;;;;;;2.53;2.14;;;;;;;14.07;61.42;100366.09;463056;114;922406;-77
2022/09/23 00:42:26;;;;;;;1.83;1.73;;;;;;;14.09;61.54;100372.19;462945;114;930265;-77
2022/09/23 00:43:51;;;;;;;3.47;2.59;;;;;;;14.11;61.58;100371.95;463120;114;922733;-78
2022/09/23 00:44:59;;;;;;;2.52;2.15;;;;;;;14.11;61.77;100377.44;462954;114;922604;-76
2022/09/23 00:46:02;;;;;;;3.47;2.23;;;;;;;14.11;61.74;100377.44;462840;114;922454;-78
2022/09/23 00:47:12;;;;;;;2.09;1.99;;;;;;;14.11;61.84;100372.75;462962;114;923149;-77
2022/09/23 00:48:20;;;;;;;3.00;2.57;;;;;;;14.12;61.84;100384.55;462928;114;922642;-77
2022/09/23 00:49:26;;;;;;;2.67;1.98;;;;;;;14.14;62.00;100376.94;462963;114;923061;-78
2022/09/23 00:50:35;;;;;;;3.57;2.04;;;;;;;14.15;62.02;100379.44;462905;114;923196;-78
2022/09/23 00:51:42;;;;;;;2.55;2.16;;;;;;;14.15;62.05;100379.44;462892;114;922822;-76
2022/09/23 00:52:46;;;;;;;2.73;2.48;;;;;;;14.16;62.00;100370.14;462818;114;922971;-78
2022/09/23 00:53:50;;;;;;;2.48;2.30;;;;;;;14.17;62.07;100370.95;463003;114;923046;-76
2022/09/23 00:54:56;;;;;;;3.27;2.15;;;;;;;14.16;62.12;100372.89;462980;114;923101;-79
2022/09/23 00:56:02;;;;;;;2.47;2.20;;;;;;;14.17;62.22;100365.46;462889;114;922452;-76
2022/09/23 00:57:05;;;;;;;2.83;2.58;;;;;;;14.16;62.22;100367.41;462925;114;922996;-76
2022/09/23 00:58:13;;;;;;;2.56;2.40;;;;;;;14.16;62.21;100363.82;463017;114;923223;-75
2022/09/23 00:59:18;;;;;;;2.30;2.08;;;;;;;14.14;62.33;100364.05;462875;114;923148;-75
2022/09/23 01:00:22;;;;;;;2.48;2.28;;;;;;;14.14;62.37;100365.96;462920;114;922592;-76
2022/09/23 01:01:25;;;;;;;2.90;2.49;;;;;;;14.15;62.49;100362.16;462961;114;922610;-77
2022/09/23 01:02:28;;;;;;;3.44;2.41;;;;;;;14.14;62.63;100350.34;453671;117;922533;-77
2022/09/23 01:03:31;;;;;;;2.83;2.47;;;;;;;14.15;62.74;100352.02;463094;114;922549;-77
2022/09/23 01:04:35;;;;;;;2.73;2.34;;;;;;;14.14;62.78;100344.87;463110;114;923133;-78
2022/09/23 01:05:39;;;;;;;2.79;2.29;;;;;;;14.16;62.93;100352.86;463017;114;922559;-77
2022/09/23 01:06:42;;;;;;;2.99;2.76;;;;;;;14.16;63.03;100347.38;462983;114;930840;-77
2022/09/23 01:07:45;;;;;;;2.84;2.62;;;;;;;14.17;63.16;100355.33;463041;114;930353;-77
2022/09/23 01:08:48;;;;;;;3.25;2.51;;;;;;;14.18;63.24;100350.69;461914;114;923202;-77
2022/09/23 01:09:52;;;;;;;3.66;3.33;;;;;;;14.20;63.28;100354.02;461887;114;923117;-77
2022/09/23 01:11:08;;;;;;;3.02;2.76;;;;;;;14.19;63.39;100353.19;462929;114;930629;-79
2022/09/23 01:12:21;;;;;;;5.09;3.06;;;;;;;14.22;63.46;100353.79;462377;114;930512;-77
2022/09/23 01:13:53;;;;;;;3.19;2.92;;;;;;;14.23;63.63;100359.01;462518;114;922554;-77
2022/09/23 01:15:09;;;;;;;3.26;2.71;;;;;;;14.24;63.76;100352.45;462657;114;922515;-76
2022/09/23 01:16:34;;;;;;;3.40;3.10;;;;;;;14.23;63.93;100342.55;462761;114;923547;-77
2022/09/23 01:17:50;;;;;;;3.54;3.15;;;;;;;14.22;64.02;100335.43;462887;114;922553;-78
2022/09/23 01:19:05;;;;;;;4.43;3.38;;;;;;;14.18;64.28;100326.00;461809;114;922818;-77
2022/09/23 01:20:20;;;;;;;4.19;3.19;;;;;;;14.14;64.52;100316.61;462896;114;922909;-77
2022/09/23 01:21:33;;;;;;;3.53;3.27;;;;;;;14.09;64.79;100324.73;461868;114;922987;-77
2022/09/23 01:22:43;;;;;;;3.58;2.63;;;;;;;14.06;65.28;100316.98;462433;114;922985;-77
2022/09/23 01:24:18;;;;;;;2.38;2.21;;;;;;;14.03;65.40;100318.32;462681;114;922829;-78
2022/09/23 01:25:54;;;;;;;4.56;3.11;;;;;;;14.00;65.43;100317.98;462858;114;923005;-77
2022/09/23 01:27:01;;;;;;;4.43;3.59;;;;;;;13.96;65.80;100317.63;462836;114;922691;-77
2022/09/23 01:28:08;;;;;;;4.30;3.02;;;;;;;13.92;66.23;100319.19;462842;114;922956;-77
2022/09/23 01:29:44;;;;;;;5.26;2.82;;;;;;;13.91;66.38;100320.27;462593;114;922656;-78
2022/09/23 01:30:50;;;;;;;3.22;2.94;;;;;;;13.91;66.54;100320.27;462800;114;922568;-78
2022/09/23 01:32:18;;;;;;;4.36;3.08;;;;;;;13.90;66.60;100315.85;470141;112;923011;-78
2022/09/23 01:33:25;;;;;;;2.93;2.64;;;;;;;13.90;66.61;100306.80;470536;112;922483;-78
2022/09/23 01:34:55;;;;;;;3.41;3.01;;;;;;;13.89;66.79;100302.41;463511;112;922497;-78
2022/09/23 01:36:35;;;;;;;2.95;2.47;;;;;;;13.88;66.90;100307.06;462853;114;922572;-78
2022/09/23 01:37:59;;;;;;;6.04;3.04;;;;;;;13.87;66.91;100291.69;462776;114;922996;-78
2022/09/23 01:39:09;;;;;;;2.88;2.64;;;;;;;13.85;66.95;100284.77;462354;114;923129;-78
2022/09/23 01:40:39;;;;;;;3.94;3.03;;;;;;;13.83;67.12;100282.30;459685;114;923070;-79
2022/09/23 01:41:50;;;;;;;5.29;2.49;;;;;;;13.80;67.13;100277.28;462856;114;922516;-78
2022/09/23 01:42:57;;;;;;;2.74;2.39;;;;;;;13.75;67.26;100268.96;462662;114;922505;-78
2022/09/23 01:44:12;;;;;;;3.32;2.75;;;;;;;13.67;67.56;100272.91;462874;114;922945;-79
2022/09/23 01:45:37;;;;;;;3.46;2.78;;;;;;;13.61;67.56;100267.59;462804;114;922666;-78
2022/09/23 01:46:50;;;;;;;2.93;2.70;;;;;;;13.54;67.91;100277.83;457068;114;922533;-79
2022/09/23 01:47:56;;;;;;;4.22;2.77;;;;;;;13.49;68.19;100278.56;462805;114;922839;-79
2022/09/23 01:49:18;;;;;;;4.11;2.88;;;;;;;13.45;68.06;100277.39;462753;114;922501;-79
2022/09/23 01:51:56;;;;;;;4.13;2.63;;;;;;;13.35;68.28;100277.14;463301;112;923135;-79
2022/09/23 01:53:02;;;;;;;3.03;2.76;;;;;;;13.31;68.33;100265.02;470817;112;922481;-79
2022/09/23 01:54:31;;;;;;;3.87;2.57;;;;;;;13.27;68.51;100270.15;471149;112;922837;-78
2022/09/23 01:55:37;;;;;;;3.42;3.07;;;;;;;13.26;68.62;100270.38;470804;112;922546;-79
2022/09/23 01:56:51;;;;;;;3.64;2.75;;;;;;;13.23;68.53;100251.70;471123;112;922534;-78
2022/09/23 01:58:01;;;;;;;3.26;2.59;;;;;;;13.22;68.49;100252.77;468810;112;922979;-78
2022/09/23 01:59:26;;;;;;;3.88;2.78;;;;;;;13.19;68.48;100253.23;470748;112;922984;-78
2022/09/23 02:00:33;;;;;;;2.96;2.39;;;;;;;13.16;68.48;100250.99;470779;112;930954;-78
2022/09/23 02:01:55;;;;;;;3.50;3.21;;;;;;;13.12;68.49;100256.09;471186;112;922646;-77
2022/09/23 02:03:09;;;;;;;3.34;3.04;;;;;;;13.11;68.48;100257.16;471095;112;923524;-78
2022/09/23 02:04:16;;;;;;;2.89;2.62;;;;;;;13.09;68.46;100255.72;471133;112;922791;-78
2022/09/23 02:05:28;;;;;;;3.49;2.59;;;;;;;13.07;68.57;100266.06;470362;112;922602;-79
2022/09/23 02:06:35;;;;;;;4.02;2.97;;;;;;;13.06;68.64;100264.42;470701;112;922571;-79
2022/09/23 02:07:49;;;;;;;3.59;2.97;;;;;;;13.05;68.64;100258.11;471073;112;923138;-79
2022/09/23 02:08:59;;;;;;;3.79;2.71;;;;;;;13.06;68.76;100259.78;471137;112;922590;-78
2022/09/23 02:10:08;;;;;;;2.86;2.63;;;;;;;13.05;68.67;100260.02;471103;112;922989;-79
2022/09/23 02:11:14;;;;;;;3.21;2.39;;;;;;;13.05;68.71;100269.06;470723;112;923176;-79
2022/09/23 02:12:20;;;;;;;3.43;2.73;;;;;;;13.06;68.73;100275.38;471137;112;922984;-78
2022/09/23 02:13:28;;;;;;;2.67;2.36;;;;;;;13.05;68.63;100271.80;471176;112;922635;-78
2022/09/23 02:14:37;;;;;;;2.83;2.51;;;;;;;13.07;68.62;100275.11;470869;112;923001;-78
2022/09/23 02:15:44;;;;;;;2.91;2.41;;;;;;;13.07;68.64;100277.01;467608;112;922927;-79
2022/09/23 02:16:50;;;;;;;3.76;2.65;;;;;;;13.07;68.61;100274.27;462763;114;923027;-78
2022/09/23 02:17:57;;;;;;;3.07;2.39;;;;;;;13.08;68.60;100273.20;462829;114;922629;-79
2022/09/23 02:19:10;;;;;;;2.81;2.54;;;;;;;13.07;68.61;100272.38;462672;114;922563;-79
2022/09/23 02:20:19;;;;;;;2.56;2.32;;;;;;;13.09;68.63;100280.35;462909;114;922512;-78
2022/09/23 02:21:25;;;;;;;2.76;2.52;;;;;;;13.09;68.61;100274.87;462962;114;922887;-79
2022/09/23 02:22:41;;;;;;;3.49;2.53;;;;;;;13.10;68.64;100274.65;462904;114;922956;-79
2022/09/23 02:23:49;;;;;;;2.87;2.19;;;;;;;13.11;68.59;100272.75;462915;114;922664;-78
2022/09/23 02:24:54;;;;;;;2.67;2.28;;;;;;;13.11;68.58;100279.06;462911;114;922502;-79
2022/09/23 02:26:15;;;;;;;2.54;2.34;;;;;;;13.13;68.60;100278.83;462972;113;922528;-78
2022/09/23 02:27:40;;;;;;;2.85;2.25;;;;;;;13.14;68.54;100275.02;462875;114;930454;-78
2022/09/23 02:29:17;;;;;;;1.98;1.83;;;;;;;13.15;68.58;100284.91;462704;114;922587;-78
2022/09/23 02:30:25;;;;;;;2.22;1.99;;;;;;;13.15;68.42;100280.27;462918;114;922522;-78
2022/09/23 02:31:44;;;;;;;1.90;1.68;;;;;;;13.15;68.37;100280.27;462959;114;922589;-78
2022/09/23 02:32:56;;;;;;;2.24;1.97;;;;;;;13.14;68.28;100272.28;461885;114;922559;-79
2022/09/23 02:34:06;;;;;;;2.44;1.56;;;;;;;13.14;68.21;100278.59;459859;114;922535;-78
2022/09/23 02:35:18;;;;;;;1.83;1.69;;;;;;;13.15;68.13;100273.95;462906;114;922565;-78
2022/09/23 02:36:33;;;;;;;1.72;1.62;;;;;;;13.15;68.12;100274.80;462876;114;923077;-78
2022/09/23 02:37:42;;;;;;;2.05;1.70;;;;;;;13.13;67.92;100270.62;455943;114;922664;-78
2022/09/23 02:38:50;;;;;;;2.39;1.50;;;;;;;13.13;67.99;100270.62;457598;116;922996;-78
2022/09/23 02:40:23;;;;;;;1.89;1.55;;;;;;;13.13;67.82;100271.45;457570;116;922519;-78
2022/09/23 02:41:36;;;;;;;2.54;1.89;;;;;;;13.13;67.63;100276.09;457789;116;923017;-77
2022/09/23 02:43:04;;;;;;;1.76;1.66;;;;;;;13.12;67.52;100274.45;457761;116;923052;-78
2022/09/23 02:44:10;;;;;;;1.81;1.66;;;;;;;13.11;67.53;100278.22;457766;116;922447;-78
2022/09/23 02:45:13;;;;;;;1.52;1.42;;;;;;;13.07;67.56;100279.75;457840;114;922993;-78
2022/09/23 02:46:17;;;;;;;2.14;1.58;;;;;;;13.06;67.67;100280.84;458031;116;922598;-78
2022/09/23 02:47:23;;;;;;;1.64;1.44;;;;;;;13.03;67.74;100287.61;457884;116;922476;-78
2022/09/23 02:48:30;;;;;;;1.58;1.45;;;;;;;13.02;67.83;100285.11;457793;116;922496;-78
2022/09/23 02:49:35;;;;;;;2.46;1.49;;;;;;;13.00;67.85;100292.73;457714;116;923048;-78
2022/09/23 02:50:38;;;;;;;1.65;1.51;;;;;;;12.97;67.89;100294.03;457753;116;922558;-78
2022/09/23 02:51:41;;;;;;;1.70;1.60;;;;;;;12.94;67.94;100309.05;457987;116;922522;-78
2022/09/23 02:52:45;;;;;;;3.68;1.96;;;;;;;12.91;68.08;100309.50;457920;116;923364;-78
2022/09/23 02:53:48;;;;;;;1.49;1.39;;;;;;;12.89;68.23;100322.61;457922;116;923033;-78
2022/09/23 02:54:52;;;;;;;1.47;1.37;;;;;;;12.87;68.44;100324.73;458050;116;923015;-78
2022/09/23 02:55:55;;;;;;;1.55;1.39;;;;;;;12.83;69.07;100309.86;457946;116;922976;-77
2022/09/23 02:57:01;;;;;;;1.44;1.34;;;;;;;12.83;69.07;100309.86;457812;116;930224;-78
2022/09/23 02:58:05;;;;;;;1.82;1.44;;;;;;;12.83;68.82;100311.77;457709;116;930355;-77
2022/09/23 02:59:09;;;;;;;1.47;1.37;;;;;;;12.81;68.99;100303.78;457911;116;922540;-78
2022/09/23 03:00:13;;;;;;;1.59;1.48;;;;;;;12.81;68.95;100303.78;457774;116;922987;-78
2022/09/23 03:01:38;;;;;;;2.13;1.39;;;;;;;12.80;69.04;100291.16;457861;116;923262;-78
2022/09/23 03:03:03;;;;;;;3.13;1.88;;;;;;;12.79;69.18;100296.89;457751;116;923072;-78
2022/09/23 03:04:09;;;;;;;2.06;1.47;;;;;;;12.80;69.32;100298.53;456871;116;922775;-78
2022/09/23 03:05:22;;;;;;;1.68;1.34;;;;;;;12.78;69.25;100309.73;456692;116;922657;-78
2022/09/23 03:06:30;;;;;;;2.18;1.60;;;;;;;12.78;69.20;100309.73;457684;116;923144;-78
2022/09/23 03:07:57;;;;;;;1.76;1.42;;;;;;;12.77;69.33;100318.17;457783;116;923080;-78
2022/09/23 03:09:04;;;;;;;4.38;1.88;;;;;;;12.75;69.59;100323.03;457755;116;922555;-79
2022/09/23 03:10:25;;;;;;;3.46;1.71;;;;;;;12.72;69.96;100324.36;449568;118;923511;-79
2022/09/23 03:11:28;;;;;;;1.72;1.62;;;;;;;12.69;70.26;100316.60;456387;116;922499;-79
2022/09/23 03:12:47;;;;;;;1.92;1.79;;;;;;;12.63;70.57;100317.54;457944;116;922901;-78
2022/09/23 03:14:15;;;;;;;3.72;2.09;;;;;;;12.58;70.81;100302.90;457222;116;923525;-78
2022/09/23 03:15:36;;;;;;;2.15;1.90;;;;;;;12.51;71.18;100305.77;457672;116;923041;-80
2022/09/23 03:16:49;;;;;;;12.07;1.78;;;;;;;12.44;71.53;100305.02;457774;116;923011;-79
2022/09/23 03:17:55;;;;;;;2.02;1.31;;;;;;;12.37;71.80;100315.22;457556;116;922542;-79
2022/09/23 03:19:02;;;;;;;2.86;1.99;;;;;;;12.29;72.07;100321.87;457755;116;922636;-79
2022/09/23 03:20:08;;;;;;;3.98;1.83;;;;;;;12.24;72.38;100324.44;457034;116;922473;-78
2022/09/23 03:21:18;;;;;;;3.47;1.73;;;;;;;12.21;72.67;100327.64;457567;115;922676;-79
2022/09/23 03:22:30;;;;;;;1.89;1.74;;;;;;;12.20;73.02;100344.27;457044;116;922870;-79
2022/09/23 03:23:36;;;;;;;2.33;2.00;;;;;;;12.19;73.21;100343.43;457790;116;923043;-79
2022/09/23 03:24:43;;;;;;;1.93;1.47;;;;;;;12.19;73.38;100342.59;457784;116;923081;-78
2022/09/23 03:25:48;;;;;;;2.28;1.64;;;;;;;12.20;73.66;100349.73;457833;116;923104;-79
2022/09/23 03:26:52;;;;;;;1.79;1.38;;;;;;;12.21;73.93;100341.31;457803;116;922971;-79
2022/09/23 03:27:57;;;;;;;2.25;1.49;;;;;;;12.22;73.80;100344.88;457897;116;922588;-79
2022/09/23 03:29:04;;;;;;;3.04;2.05;;;;;;;12.22;73.89;100345.72;457801;116;922455;-79
2022/09/23 03:30:08;;;;;;;1.62;1.52;;;;;;;12.22;74.03;100347.62;460775;114;923075;-79
2022/09/23 03:31:13;;;;;;;2.02;1.72;;;;;;;12.21;74.00;100333.11;461817;114;922698;-78
2022/09/23 03:32:19;;;;;;;2.76;2.09;;;;;;;12.21;74.00;100333.11;457806;116;922571;-79
2022/09/23 03:33:26;;;;;;;2.38;1.72;;;;;;;12.22;74.01;100339.41;457710;116;930600;-78
2022/09/23 03:34:33;;;;;;;3.18;2.22;;;;;;;12.22;74.22;100336.69;457752;114;923098;-78
2022/09/23 03:36:48;;;;;;;2.19;2.00;;;;;;;12.23;74.37;100333.73;457774;116;922405;-79
2022/09/23 03:36:50;;;;;;;2.75;1.99;;;;;;;12.26;74.54;100335.14;455281;116;923102;-79
2022/09/23 03:38:02;;;;;;;2.56;2.00;;;;;;;12.27;74.53;100336.82;458420;114;922984;-78
2022/09/23 03:39:09;;;;;;;2.33;1.82;;;;;;;12.30;74.71;100333.61;461963;114;922956;-79
2022/09/23 03:40:26;;;;;;;1.78;1.62;;;;;;;12.32;74.70;100334.22;462901;114;922584;-79
2022/09/23 03:41:36;;;;;;;3.98;2.17;;;;;;;12.33;74.82;100334.00;462896;114;922651;-78
2022/09/23 03:42:40;;;;;;;2.43;2.23;;;;;;;12.35;74.86;100336.51;462779;114;922676;-78
2022/09/23 03:43:44;;;;;;;2.84;2.18;;;;;;;12.37;74.93;100334.36;462927;114;930472;-79
2022/09/23 03:44:52;;;;;;;2.66;2.38;;;;;;;12.39;75.16;100334.97;462884;114;930790;-79
2022/09/23 03:45:56;;;;;;;3.13;2.61;;;;;;;12.41;75.19;100338.28;462854;114;923103;-79
2022/09/23 03:47:01;;;;;;;3.00;2.35;;;;;;;12.43;75.26;100336.16;462991;114;923229;-79
2022/09/23 03:48:05;;;;;;;4.33;2.46;;;;;;;12.46;75.32;100343.89;462811;114;922897;-80
2022/09/23 03:49:18;;;;;;;3.58;2.29;;;;;;;12.47;75.49;100342.83;463015;114;922610;-77
2022/09/23 03:50:21;;;;;;;2.10;1.89;;;;;;;12.49;75.45;100344.27;462846;114;922525;-80
2022/09/23 03:51:24;;;;;;;3.04;2.14;;;;;;;12.51;75.45;100344.86;463089;114;922501;-79
2022/09/23 03:52:27;;;;;;;3.21;1.99;;;;;;;12.53;75.50;100341.89;463029;114;922538;-79
2022/09/23 03:53:30;;;;;;;2.48;2.14;;;;;;;12.54;75.48;100344.41;463066;114;922536;-79
2022/09/23 03:54:33;;;;;;;2.21;2.01;;;;;;;12.55;75.60;100345.24;463035;114;922842;-79
2022/09/23 03:55:38;;;;;;;2.76;1.99;;;;;;;12.55;75.65;100342.51;463023;114;922793;-81
2022/09/23 03:56:41;;;;;;;2.49;2.07;;;;;;;12.57;75.67;100345.02;462871;114;922937;-77
2022/09/23 03:57:44;;;;;;;2.48;2.01;;;;;;;12.57;75.73;100347.75;463085;114;922594;-78
2022/09/23 03:58:47;;;;;;;2.86;1.89;;;;;;;12.57;75.87;100348.56;462979;114;922594;-78
2022/09/23 03:59:50;;;;;;;2.46;2.22;;;;;;;12.58;75.90;100343.92;462981;114;930367;-78
2022/09/23 04:00:54;;;;;;;2.58;2.05;;;;;;;12.58;75.93;100350.23;462999;114;922680;-78
2022/09/23 04:01:58;;;;;;;2.02;1.77;;;;;;;12.58;75.98;100349.39;462949;114;922736;-78
2022/09/23 04:03:01;;;;;;;2.02;1.84;;;;;;;12.60;76.11;100347.27;462953;114;923162;-78
2022/09/23 04:04:04;;;;;;;2.44;1.98;;;;;;;12.60;76.09;100348.11;463087;114;922622;-78
2022/09/23 04:05:08;;;;;;;2.91;1.94;;;;;;;12.60;76.21;100350.84;463076;114;922645;-78
2022/09/23 04:06:12;;;;;;;2.78;2.16;;;;;;;12.60;76.21;100345.37;462895;114;923047;-77
2022/09/23 04:07:15;;;;;;;2.31;1.96;;;;;;;12.60;76.34;100337.16;462988;114;922733;-77
2022/09/23 04:08:18;;;;;;;3.70;2.56;;;;;;;12.61;76.42;100344.31;463058;114;922504;-80
2022/09/23 04:09:22;;;;;;;2.72;2.34;;;;;;;12.63;76.47;100341.31;463156;114;922948;-79
2022/09/23 04:10:25;;;;;;;2.99;2.42;;;;;;;12.64;76.56;100338.36;462978;114;922869;-78
2022/09/23 04:11:28;;;;;;;3.54;2.24;;;;;;;12.67;76.75;100334.34;463007;114;930298;-79
2022/09/23 04:12:31;;;;;;;3.19;2.34;;;;;;;12.68;76.84;100339.55;463072;114;922973;-77
2022/09/23 04:13:33;;;;;;;3.02;2.11;;;;;;;12.71;76.92;100338.27;463037;114;922650;-77
2022/09/23 04:14:36;;;;;;;3.42;2.29;;;;;;;12.72;76.88;100337.20;463097;114;922478;-78
2022/09/23 04:15:40;;;;;;;3.37;2.19;;;;;;;12.72;76.82;100337.20;463059;114;922586;-79
2022/09/23 04:16:43;;;;;;;2.23;1.74;;;;;;;12.73;76.87;100336.14;463061;114;922521;-79
2022/09/23 04:17:46;;;;;;;2.14;1.91;;;;;;;12.72;76.81;100338.03;463004;114;922461;-77
2022/09/23 04:18:49;;;;;;;4.31;1.76;;;;;;;12.71;76.66;100335.52;463069;114;922884;-78
2022/09/23 04:19:52;;;;;;;3.11;2.11;;;;;;;12.69;76.75;100330.28;463088;114;922486;-79
2022/09/23 04:20:58;;;;;;;2.66;2.20;;;;;;;12.67;76.98;100328.86;463059;114;922493;-78
2022/09/23 04:22:02;;;;;;;1.93;1.76;;;;;;;12.67;76.98;100328.86;462900;114;922493;-80
2022/09/23 04:23:05;;;;;;;3.29;1.87;;;;;;;12.65;76.65;100337.30;463017;114;923195;-79
2022/09/23 04:24:09;;;;;;;4.58;2.30;;;;;;;12.63;76.46;100324.91;462998;114;930336;-79
2022/09/23 04:25:12;;;;;;;2.18;1.89;;;;;;;12.60;76.54;100319.92;463004;114;922487;-79
2022/09/23 04:26:17;;;;;;;3.96;1.70;;;;;;;12.58;76.65;100309.20;462980;114;922883;-78
2022/09/23 04:27:20;;;;;;;2.06;1.92;;;;;;;12.58;76.70;100308.37;462936;114;923060;-78
2022/09/23 04:28:23;;;;;;;1.69;1.59;;;;;;;12.57;76.75;100313.00;463125;114;922491;-78
2022/09/23 04:29:26;;;;;;;2.43;1.97;;;;;;;12.56;76.82;100308.63;463092;114;923039;-78
2022/09/23 04:30:29;;;;;;;1.86;1.74;;;;;;;12.56;76.77;100299.58;463032;114;922556;-79
2022/09/23 04:31:33;;;;;;;2.21;1.88;;;;;;;12.56;76.87;100302.32;463072;114;922578;-78
2022/09/23 04:32:36;;;;;;;1.59;1.48;;;;;;;12.54;76.96;100297.91;463008;114;922643;-78
2022/09/23 04:33:39;;;;;;;2.02;1.86;;;;;;;12.53;76.86;100298.98;463031;114;923154;-77
2022/09/23 04:34:43;;;;;;;1.79;1.63;;;;;;;12.52;76.85;100300.03;462966;114;922917;-77
2022/09/23 04:35:49;;;;;;;1.80;1.69;;;;;;;12.51;76.92;100300.30;463039;114;922570;-78
2022/09/23 04:36:53;;;;;;;1.75;1.44;;;;;;;12.49;76.93;100303.25;462906;114;922656;-79
2022/09/23 04:37:55;;;;;;;1.81;1.71;;;;;;;12.48;76.86;100304.31;463109;114;922948;-80
2022/09/23 04:38:58;;;;;;;2.42;1.74;;;;;;;12.46;76.77;100302.87;462999;114;922640;-79
2022/09/23 04:40:02;;;;;;;2.59;2.04;;;;;;;12.44;76.84;100302.29;463041;114;922496;-78
2022/09/23 04:41:10;;;;;;;1.92;1.59;;;;;;;12.41;76.79;100295.38;462950;114;922859;-78
2022/09/23 04:42:13;;;;;;;2.65;1.63;;;;;;;12.41;76.90;100297.27;462869;114;922912;-79
2022/09/23 04:43:16;;;;;;;2.83;1.51;;;;;;;12.40;76.83;100295.63;463093;114;922531;-79
2022/09/23 04:44:20;;;;;;;1.79;1.69;;;;;;;12.38;76.75;100286.81;462988;114;922540;-79
2022/09/23 04:45:23;;;;;;;1.63;1.53;;;;;;;12.38;76.81;100297.75;462974;114;922760;-78
2022/09/23 04:46:25;;;;;;;1.94;1.66;;;;;;;12.36;76.78;100297.98;463059;114;923159;-77
2022/09/23 04:47:30;;;;;;;1.54;1.38;;;;;;;12.35;76.70;100290.03;463113;114;922948;-78
2022/09/23 04:48:35;;;;;;;1.54;1.44;;;;;;;12.33;76.61;100287.52;462910;114;922676;-78
2022/09/23 04:49:39;;;;;;;1.88;1.59;;;;;;;12.30;76.46;100292.60;462890;114;922819;-78
2022/09/23 04:50:42;;;;;;;2.38;1.74;;;;;;;12.26;76.37;100283.20;462996;114;922631;-78
2022/09/23 04:51:46;;;;;;;1.67;1.51;;;;;;;12.23;76.49;100284.52;463003;114;930286;-78
2022/09/23 04:52:49;;;;;;;2.52;1.68;;;;;;;12.22;76.67;100287.48;462865;114;923359;-78
2022/09/23 04:53:53;;;;;;;1.73;1.63;;;;;;;12.21;76.72;100283.91;462937;114;922769;-81
2022/09/23 04:54:56;;;;;;;2.70;1.99;;;;;;;12.22;76.79;100280.11;462945;114;923004;-78
2022/09/23 04:56:05;;;;;;;3.04;2.17;;;;;;;12.23;76.92;100283.69;462924;114;922578;-78
2022/09/23 04:57:09;;;;;;;2.28;2.09;;;;;;;12.24;77.08;100282.62;462916;114;922909;-78
2022/09/23 04:58:12;;;;;;;2.18;1.92;;;;;;;12.25;77.15;100285.10;463042;114;923080;-78
2022/09/23 04:59:15;;;;;;;2.39;2.20;;;;;;;12.25;77.01;100287.84;463109;114;922545;-77
2022/09/23 05:00:19;;;;;;;2.42;2.20;;;;;;;12.25;77.06;100293.30;463083;114;922909;-78
2022/09/23 05:01:25;;;;;;;2.97;2.12;;;;;;;12.27;77.01;100290.34;462950;114;923271;-77
2022/09/23 05:02:28;;;;;;;4.79;2.56;;;;;;;12.27;77.11;100288.45;462900;114;922603;-77
2022/09/23 05:03:34;;;;;;;2.46;2.24;;;;;;;12.28;76.96;100292.02;463115;114;922990;-77
2022/09/23 05:04:37;;;;;;;2.58;2.22;;;;;;;12.28;76.94;100292.02;462947;114;922487;-78
2022/09/23 05:05:40;;;;;;;3.64;2.04;;;;;;;12.28;77.01;100297.48;463087;114;922923;-77
2022/09/23 05:06:44;;;;;;;2.51;2.00;;;;;;;12.28;76.89;100297.48;463030;114;922519;-77
2022/09/23 05:07:47;;;;;;;2.75;2.53;;;;;;;12.27;76.87;100293.91;463033;114;922653;-78
2022/09/23 05:08:53;;;;;;;2.37;2.19;;;;;;;12.26;76.92;100288.67;463110;114;922616;-78
2022/09/23 05:09:56;;;;;;;2.92;1.78;;;;;;;12.26;76.86;100286.77;462876;114;923009;-78
2022/09/23 05:11:01;;;;;;;1.96;1.86;;;;;;;12.25;76.88;100287.84;463056;114;922561;-77
2022/09/23 05:12:05;;;;;;;1.83;1.73;;;;;;;12.23;76.82;100295.45;462875;114;922807;-77
2022/09/23 05:13:08;;;;;;;1.96;1.67;;;;;;;12.22;76.68;100287.48;463013;114;922544;-77
2022/09/23 05:14:11;;;;;;;1.87;1.77;;;;;;;12.18;76.52;100284.39;462954;114;923840;-78